Time;durP1;ratioP1;P1;durP2;ratioP2;P2;SDS_P1;SDS_P2;PMS_P1;PMS_P2;Temp;Humidity;BMP_temperature;BMP_pressure;BME280_temperature;BME280_humidity;BME280_pressure;Samples;Min_cycle;Max_cycle;Signal;HPM_P1;HPM_P2
2022/06/28 00:00:32;;;;;;;0.10;0.10;;;;;;;17.88;61.50;102114.94;5040248;28;20079;-79
2022/06/28 00:02:58;;;;;;;0.20;0.20;;;;;;;17.89;61.46;102116.72;5048887;28;20025;-79
2022/06/28 00:05:24;;;;;;;0.10;0.10;;;;;;;17.88;61.33;102118.53;5049130;28;20028;-80
2022/06/28 00:07:51;;;;;;;2.20;0.93;;;;;;;17.83;61.51;102116.91;5042028;28;20030;-80
2022/06/28 00:10:17;;;;;;;0.00;0.00;;;;;;;17.84;60.91;102110.63;5051565;28;20025;-78
2022/06/28 00:12:43;;;;;;;0.00;0.00;;;;;;;17.81;60.93;102108.91;5049127;28;20082;-79
2022/06/28 00:17:59;;;;;;;0.00;0.00;;;;;;;17.73;61.26;102111.81;5050648;28;20325;-80
2022/06/28 00:20:26;;;;;;;0.05;0.05;;;;;;;17.72;61.26;102112.75;5052466;28;20033;-81
2022/06/28 00:22:52;;;;;;;0.10;0.10;;;;;;;17.70;61.50;102109.22;5049946;28;20033;-81
2022/06/28 00:25:18;;;;;;;0.03;0.03;;;;;;;17.66;61.77;102104.88;5043936;28;20030;-79
2022/06/28 00:27:45;;;;;;;0.10;0.10;;;;;;;17.66;61.64;102107.56;5049870;28;20060;-79
2022/06/28 00:30:12;;;;;;;0.10;0.10;;;;;;;17.64;61.68;102106.72;5041501;28;20033;-78
2022/06/28 00:32:38;;;;;;;0.00;0.00;;;;;;;17.60;61.89;102103.25;5046461;28;20029;-81
2022/06/28 00:35:06;;;;;;;0.00;0.00;;;;;;;17.58;62.16;102105.13;5048460;28;20464;-80
2022/06/28 00:37:32;;;;;;;0.10;0.10;;;;;;;17.55;62.48;102102.50;5044008;28;20028;-80
2022/06/28 00:39:58;;;;;;;0.03;0.03;;;;;;;17.54;62.33;102113.28;5049122;28;20053;-80
2022/06/28 00:42:24;;;;;;;0.10;0.10;;;;;;;17.52;62.07;102107.09;5049600;28;20052;-80
2022/06/28 00:44:51;;;;;;;0.10;0.10;;;;;;;17.49;62.25;102109.88;5046381;28;20029;-81
2022/06/28 00:47:18;;;;;;;0.00;0.00;;;;;;;17.46;62.38;102113.50;5052084;28;20108;-79
2022/06/28 00:49:44;;;;;;;0.03;0.03;;;;;;;17.42;62.60;102120.75;5039366;28;20037;-80
2022/06/28 00:52:12;;;;;;;0.10;0.10;;;;;;;17.40;62.36;102117.22;5038486;28;20220;-81
2022/06/28 00:54:39;;;;;;;0.00;0.00;;;;;;;17.38;62.59;102121.75;5050114;28;20196;-79
2022/06/28 00:57:06;;;;;;;0.10;0.10;;;;;;;17.36;62.56;102118.25;5052734;28;20033;-80
2022/06/28 00:59:32;;;;;;;0.00;0.00;;;;;;;17.34;62.54;102125.44;5046084;28;20033;-80
2022/06/28 01:01:59;;;;;;;0.25;0.25;;;;;;;17.33;62.60;102122.81;5049221;28;20075;-79
2022/06/28 01:04:26;;;;;;;0.10;0.10;;;;;;;17.29;62.84;102127.38;5045665;28;20166;-79
2022/06/28 01:06:54;;;;;;;0.13;0.13;;;;;;;17.27;62.68;102131.88;5040534;28;20039;-80
2022/06/28 01:09:20;;;;;;;0.10;0.10;;;;;;;17.23;62.16;102130.22;5046583;28;20060;-78
2022/06/28 01:11:47;;;;;;;0.20;0.20;;;;;;;17.21;62.71;102124.00;5049533;28;20163;-80
2022/06/28 01:14:13;;;;;;;0.03;0.03;;;;;;;17.18;62.48;102129.47;5043601;28;20052;-78
2022/06/28 01:16:40;;;;;;;0.00;0.00;;;;;;;17.16;62.39;102131.28;5044014;28;20082;-80
2022/06/28 01:19:07;;;;;;;0.08;0.08;;;;;;;17.11;62.23;102135.00;5047881;28;20032;-78
2022/06/28 01:21:36;;;;;;;0.10;0.10;;;;;;;17.11;62.01;102132.31;5047972;28;20072;-80
2022/06/28 01:24:03;;;;;;;0.00;0.00;;;;;;;17.11;62.31;102131.44;5051979;28;20259;-80
2022/06/28 01:26:30;;;;;;;0.10;0.10;;;;;;;17.10;62.75;102133.22;5047548;28;20053;-80
2022/06/28 01:28:56;;;;;;;0.10;0.10;;;;;;;17.09;62.13;102133.28;5050772;28;20027;-80
2022/06/28 01:31:24;;;;;;;0.00;0.00;;;;;;;17.03;62.48;102122.72;5048481;28;20037;-80
2022/06/28 01:33:52;;;;;;;0.00;0.00;;;;;;;17.00;62.61;102131.72;5049952;28;20029;-80
2022/06/28 01:36:19;;;;;;;0.00;0.00;;;;;;;16.93;62.54;102136.34;5049424;28;20101;-80
2022/06/28 01:38:45;;;;;;;0.10;0.10;;;;;;;16.94;62.52;102134.56;5051502;28;20029;-79
2022/06/28 01:41:43;;;;;;;0.00;0.00;;;;;;;16.97;62.51;102139.81;5037333;28;20037;-80
2022/06/28 01:43:59;;;;;;;5.93;1.05;;;;;;;16.93;63.29;102140.81;5049224;28;20489;-80
2022/06/28 01:46:26;;;;;;;0.10;0.10;;;;;;;16.96;62.63;102140.75;5047971;28;20052;-78
2022/06/28 01:48:53;;;;;;;0.00;0.00;;;;;;;16.91;62.81;102142.63;5046039;28;20040;-80
2022/06/28 01:51:20;;;;;;;0.10;0.10;;;;;;;16.93;62.31;102151.53;5041239;28;20047;-80
2022/06/28 01:53:46;;;;;;;0.10;0.10;;;;;;;16.91;62.33;102142.63;5049479;28;20066;-80
2022/06/28 01:56:12;;;;;;;0.20;0.20;;;;;;;16.91;62.57;102147.97;5051181;28;20430;-79
2022/06/28 01:58:40;;;;;;;0.10;0.10;;;;;;;16.89;62.58;102150.69;5048562;28;20032;-82
2022/06/28 02:01:07;;;;;;;0.00;0.00;;;;;;;16.85;62.51;102145.44;5045231;28;20095;-80
2022/06/28 02:03:34;;;;;;;0.00;0.00;;;;;;;16.86;62.92;102153.47;5053372;28;20558;-79
2022/06/28 02:06:00;;;;;;;0.00;0.00;;;;;;;16.83;63.17;102140.16;5040041;28;20029;-78
2022/06/28 02:08:26;;;;;;;0.10;0.10;;;;;;;16.82;63.11;102144.63;5050162;28;20025;-79
2022/06/28 02:10:56;;;;;;;0.00;0.00;;;;;;;16.82;63.07;102144.63;5049909;28;20040;-80
2022/06/28 02:13:22;;;;;;;0.10;0.10;;;;;;;16.81;62.75;102147.34;5052844;28;20028;-81
2022/06/28 02:15:48;;;;;;;0.00;0.00;;;;;;;16.79;62.78;102146.50;5046005;28;20036;-79
2022/06/28 02:18:15;;;;;;;0.00;0.00;;;;;;;16.76;63.13;102152.81;5045238;28;20065;-79
2022/06/28 02:20:41;;;;;;;0.00;0.00;;;;;;;16.76;63.43;102158.16;5049974;28;20051;-80
2022/06/28 02:23:07;;;;;;;0.03;0.03;;;;;;;16.75;63.35;102152.88;5043311;28;20174;-81
2022/06/28 02:25:33;;;;;;;0.00;0.00;;;;;;;16.74;63.46;102151.97;5046524;28;20033;-80
2022/06/28 02:27:59;;;;;;;0.00;0.00;;;;;;;16.73;63.28;102163.59;5047720;28;20037;-80
2022/06/28 02:30:25;;;;;;;0.00;0.00;;;;;;;16.74;63.34;102159.13;5050482;28;20037;-80
2022/06/28 02:32:51;;;;;;;0.00;0.00;;;;;;;16.72;63.95;102161.81;5050336;28;20021;-79
2022/06/28 02:40:50;;;;;;;0.00;0.00;;;;;;;16.70;63.72;102155.66;5045018;28;20171;-80
2022/06/28 02:43:16;;;;;;;0.10;0.10;;;;;;;16.68;63.61;102165.50;5052127;28;20097;-78
2022/06/28 02:45:42;;;;;;;0.00;0.00;;;;;;;16.66;63.49;102164.69;5046547;28;20092;-79
2022/06/28 02:48:09;;;;;;;0.00;0.00;;;;;;;16.65;63.80;102168.25;5042906;28;20091;-79
2022/06/28 02:50:35;;;;;;;0.10;0.10;;;;;;;16.62;63.51;102162.97;5048586;28;20078;-79
2022/06/28 02:53:01;;;;;;;0.00;0.00;;;;;;;16.60;63.23;102162.16;5038877;28;20046;-79
2022/06/28 02:55:28;;;;;;;0.00;0.00;;;;;;;16.58;63.61;102162.16;5051348;28;20033;-80
2022/06/28 02:57:54;;;;;;;0.00;0.00;;;;;;;16.57;63.61;102165.75;5052079;28;20047;-79
2022/06/28 03:00:20;;;;;;;0.00;0.00;;;;;;;16.54;63.60;102170.31;5055204;28;20035;-80
2022/06/28 03:02:48;;;;;;;0.10;0.10;;;;;;;16.49;63.87;102179.31;5054277;28;20029;-77
2022/06/28 03:05:17;;;;;;;0.00;0.00;;;;;;;16.50;63.76;102186.44;5050303;28;20025;-80
2022/06/28 03:07:44;;;;;;;0.10;0.10;;;;;;;16.45;63.88;102184.81;5043673;28;20064;-80
2022/06/28 03:10:11;;;;;;;0.00;0.00;;;;;;;16.46;63.15;102184.75;5048029;28;20087;-80
2022/06/28 03:12:38;;;;;;;0.08;0.08;;;;;;;16.44;63.39;102183.03;5051603;28;20025;-79
2022/06/28 03:15:05;;;;;;;0.10;0.10;;;;;;;16.43;63.45;102187.47;5046038;28;20036;-80
2022/06/28 03:17:31;;;;;;;0.10;0.10;;;;;;;16.38;64.32;102189.38;5050359;28;20110;-79
2022/06/28 03:19:57;;;;;;;0.10;0.10;;;;;;;16.39;63.88;102199.19;5046941;28;20482;-79
2022/06/28 03:22:24;;;;;;;0.00;0.00;;;;;;;16.40;63.74;102200.94;5040614;28;20112;-80
2022/06/28 03:24:50;;;;;;;0.03;0.03;;;;;;;16.40;63.81;102205.41;5048555;28;20409;-79
2022/06/28 03:27:16;;;;;;;0.00;0.00;;;;;;;16.42;63.58;102206.25;5044145;28;20025;-79
2022/06/28 03:29:42;;;;;;;0.00;0.00;;;;;;;16.38;63.64;102202.75;5042899;28;20063;-79
2022/06/28 03:32:08;;;;;;;0.08;0.08;;;;;;;16.38;63.54;102212.59;5046849;28;20024;-80
2022/06/28 03:34:34;;;;;;;0.00;0.00;;;;;;;16.36;63.79;102207.25;5043858;28;20033;-78
2022/06/28 03:37:01;;;;;;;0.08;0.08;;;;;;;16.36;63.60;102209.94;5023502;28;20049;-79
2022/06/28 03:39:27;;;;;;;0.08;0.08;;;;;;;16.28;63.77;102214.59;5042758;28;20036;-80
2022/06/28 03:41:53;;;;;;;0.00;0.00;;;;;;;16.32;63.46;102219.84;5040151;28;20022;-80
2022/06/28 03:44:19;;;;;;;0.10;0.10;;;;;;;16.28;63.52;102218.13;5045512;28;20064;-80
2022/06/28 03:46:45;;;;;;;0.03;0.03;;;;;;;16.28;63.35;102218.13;5048439;28;20044;-79
2022/06/28 03:49:11;;;;;;;0.10;0.10;;;;;;;16.30;63.55;102221.66;5048728;28;20052;-79
2022/06/28 03:51:37;;;;;;;0.10;0.10;;;;;;;16.32;63.31;102219.84;5042963;28;20496;-79
2022/06/28 03:54:03;;;;;;;0.10;0.10;;;;;;;16.31;62.92;102223.44;5048798;28;20115;-80
2022/06/28 03:56:29;;;;;;;0.00;0.00;;;;;;;16.33;63.00;102218.03;5050603;28;20021;-79
2022/06/28 03:58:55;;;;;;;0.00;0.00;;;;;;;16.30;63.33;102227.00;5040786;28;20033;-78
2022/06/28 04:01:21;;;;;;;0.17;0.17;;;;;;;16.23;63.83;102235.22;5040745;28;20555;-79
2022/06/28 04:03:48;;;;;;;0.10;0.10;;;;;;;16.27;63.64;102229.75;5047870;28;20335;-78
2022/06/28 04:06:14;;;;;;;0.00;0.00;;;;;;;16.30;63.91;102232.38;5040447;28;20029;-80
2022/06/28 04:08:40;;;;;;;0.10;0.10;;;;;;;16.32;63.96;102229.66;5047789;28;20029;-78
2022/06/28 04:11:21;;;;;;;2.00;1.85;;;;;;;16.32;63.91;102235.00;5039057;28;20041;-79
2022/06/28 04:13:51;;;;;;;0.10;0.10;;;;;;;16.35;64.01;102234.94;5042746;28;20071;-80
2022/06/28 04:16:19;;;;;;;0.00;0.00;;;;;;;16.36;63.66;102231.31;5048988;28;20113;-79
2022/06/28 04:18:45;;;;;;;0.00;0.00;;;;;;;16.37;63.88;102232.22;5051125;28;20118;-80
2022/06/28 04:21:14;;;;;;;0.25;0.25;;;;;;;16.38;63.32;102240.22;5052570;28;20033;-80
2022/06/28 04:23:41;;;;;;;0.00;0.00;;;;;;;16.37;63.65;102243.78;5045782;28;20036;-79
2022/06/28 04:26:07;;;;;;;0.00;0.00;;;;;;;16.40;63.70;102245.53;5041522;28;20025;-79
2022/06/28 04:28:34;;;;;;;0.10;0.10;;;;;;;16.37;63.94;102241.13;5046475;28;20037;-79
2022/06/28 04:31:01;;;;;;;0.10;0.10;;;;;;;16.43;63.71;102243.66;5046572;28;20037;-79
2022/06/28 04:33:27;;;;;;;0.38;0.38;;;;;;;16.41;64.29;102240.16;5040347;28;20044;-78
2022/06/28 04:35:54;;;;;;;0.10;0.10;;;;;;;16.45;64.15;102246.31;5053214;28;20061;-80
2022/06/28 04:38:20;;;;;;;0.10;0.10;;;;;;;16.50;63.93;102229.25;5053124;28;20037;-81
2022/06/28 04:40:46;;;;;;;0.03;0.03;;;;;;;16.47;64.27;102239.13;5036245;28;20097;-81
2022/06/28 04:43:13;;;;;;;0.05;0.05;;;;;;;16.51;64.18;102240.84;5047575;28;20071;-81
2022/06/28 04:45:39;;;;;;;0.05;0.05;;;;;;;16.50;64.43;102239.94;5053483;28;20030;-80
2022/06/28 04:48:06;;;;;;;0.10;0.10;;;;;;;16.52;64.50;102242.56;5048654;28;20159;-80
2022/06/28 04:50:32;;;;;;;1.15;0.75;;;;;;;16.56;64.55;102240.72;5049646;28;20029;-79
2022/06/28 04:52:59;;;;;;;0.08;0.08;;;;;;;16.59;64.41;102248.69;5047100;28;20025;-79
2022/06/28 04:55:25;;;;;;;0.08;0.08;;;;;;;16.60;64.73;102247.78;5048873;28;20120;-78
2022/06/28 04:57:51;;;;;;;0.38;0.38;;;;;;;16.62;64.81;102243.25;5039364;28;20029;-78
2022/06/28 05:00:18;;;;;;;0.00;0.00;;;;;;;16.63;64.67;102247.69;5039306;28;20025;-79
2022/06/28 05:02:44;;;;;;;0.10;0.10;;;;;;;16.73;64.16;102249.22;5030466;28;20025;-79
2022/06/28 05:05:10;;;;;;;0.10;0.10;;;;;;;16.78;65.00;102249.13;5054860;28;20539;-80
2022/06/28 05:07:37;;;;;;;0.00;0.00;;;;;;;16.83;64.97;102241.88;5043863;28;20033;-79
2022/06/28 05:10:04;;;;;;;0.10;0.10;;;;;;;16.89;63.94;102246.19;5047718;28;20040;-79
2022/06/28 05:12:31;;;;;;;0.00;0.00;;;;;;;16.93;64.53;102250.59;5056844;28;20037;-80
2022/06/28 05:14:57;;;;;;;0.10;0.10;;;;;;;16.92;64.90;102240.78;5055972;28;20508;-79
2022/06/28 05:17:23;;;;;;;0.10;0.10;;;;;;;17.01;64.37;102240.59;5047683;28;20123;-79
2022/06/28 05:19:50;;;;;;;0.00;0.00;;;;;;;16.94;64.85;102244.31;5047667;28;20044;-80
2022/06/28 05:22:16;;;;;;;0.00;0.00;;;;;;;17.04;64.01;102243.16;5050153;28;20025;-80
2022/06/28 05:24:42;;;;;;;0.10;0.10;;;;;;;17.06;64.20;102241.34;5046649;28;20033;-80
2022/06/28 05:27:08;;;;;;;0.15;0.15;;;;;;;17.10;64.69;102247.50;5047801;28;20032;-80
2022/06/28 05:29:34;;;;;;;0.13;0.13;;;;;;;17.20;64.13;102243.66;5046597;28;20029;-79
2022/06/28 05:32:00;;;;;;;0.00;0.00;;;;;;;17.16;64.15;102243.78;5045021;28;20021;-78
2022/06/28 05:34:26;;;;;;;0.10;0.10;;;;;;;17.02;64.94;102245.00;5051521;28;20040;-81
2022/06/28 05:36:53;;;;;;;0.00;0.00;;;;;;;17.13;64.53;102239.38;5044987;28;20504;-79
2022/06/28 05:39:19;;;;;;;0.00;0.00;;;;;;;17.22;64.45;102238.25;5062382;22;20067;-80
2022/06/28 05:41:45;;;;;;;0.00;0.00;;;;;;;17.32;64.34;102250.53;5076284;28;20059;-80
2022/06/28 05:44:13;;;;;;;0.00;0.00;;;;;;;17.36;64.50;102246.84;5080216;28;20029;-79
2022/06/28 05:46:40;;;;;;;0.03;0.03;;;;;;;17.48;64.29;102245.63;5078823;28;20438;-80
2022/06/28 05:49:08;;;;;;;0.03;0.03;;;;;;;17.48;64.21;102244.75;5074575;28;20039;-80
2022/06/28 05:51:35;;;;;;;0.00;0.00;;;;;;;17.56;63.76;102242.75;5072346;28;20355;-80
2022/06/28 05:54:01;;;;;;;0.10;0.10;;;;;;;17.48;64.07;102234.03;5069336;28;20048;-80
2022/06/28 05:56:28;;;;;;;0.10;0.10;;;;;;;17.62;63.64;102231.88;5072473;28;20033;-80
2022/06/28 05:58:54;;;;;;;0.08;0.08;;;;;;;17.47;64.42;102227.81;5067882;28;20027;-80
2022/06/28 06:01:22;;;;;;;0.10;0.10;;;;;;;17.66;63.49;102238.00;5061242;28;20083;-80
2022/06/28 06:03:48;;;;;;;0.10;0.10;;;;;;;17.77;63.58;102233.25;5064676;28;20013;-79
2022/06/28 06:06:15;;;;;;;0.08;0.08;;;;;;;17.78;63.85;102234.97;5067007;28;20028;-80
2022/06/28 06:08:41;;;;;;;0.00;0.00;;;;;;;17.79;63.61;102234.06;5063593;28;20032;-80
2022/06/28 06:11:07;;;;;;;0.00;0.00;;;;;;;17.78;63.67;102235.88;5051813;28;20056;-80
2022/06/28 06:13:33;;;;;;;0.20;0.20;;;;;;;17.93;63.44;102231.88;5057104;28;20022;-80
2022/06/28 06:16:00;;;;;;;0.32;0.32;;;;;;;18.05;63.22;102236.03;5053062;28;20435;-80
2022/06/28 06:18:26;;;;;;;0.05;0.05;;;;;;;18.13;63.16;102242.97;5052814;28;20037;-80
2022/06/28 06:20:52;;;;;;;0.10;0.10;;;;;;;18.15;63.31;102236.63;5050239;28;20045;-80
2022/06/28 06:23:18;;;;;;;0.10;0.10;;;;;;;18.20;63.44;102234.69;5053829;28;20029;-80
2022/06/28 06:25:44;;;;;;;0.00;0.00;;;;;;;18.23;63.01;102239.09;5053485;28;20033;-80
2022/06/28 06:28:10;;;;;;;0.13;0.13;;;;;;;18.24;62.72;102236.38;5051758;28;20562;-80
2022/06/28 06:30:36;;;;;;;0.10;0.10;;;;;;;18.37;62.57;102236.88;5052798;28;20385;-80
2022/06/28 06:33:03;;;;;;;0.08;0.08;;;;;;;18.42;62.49;102234.94;5055310;28;20033;-80
2022/06/28 06:35:29;;;;;;;0.00;0.00;;;;;;;18.49;62.35;102240.09;5054902;28;20041;-80
2022/06/28 06:38:00;;;;;;;0.10;0.10;;;;;;;18.52;62.82;102240.03;5050497;28;20040;-80
2022/06/28 06:40:27;;;;;;;0.10;0.10;;;;;;;18.65;62.27;102235.13;5055841;28;20032;-80
2022/06/28 06:42:53;;;;;;;0.05;0.05;;;;;;;18.65;61.79;102240.50;5058092;28;20092;-80
2022/06/28 06:45:19;;;;;;;0.03;0.03;;;;;;;18.68;61.49;102232.34;5047570;28;20096;-80
2022/06/28 06:47:45;;;;;;;0.10;0.10;;;;;;;18.72;61.70;102237.56;5049066;28;20033;-81
2022/06/28 06:50:11;;;;;;;0.10;0.10;;;;;;;18.81;61.77;102240.91;5049477;28;20033;-80
2022/06/28 06:52:39;;;;;;;0.00;0.00;;;;;;;18.82;61.46;102242.66;5047848;28;20040;-80
2022/06/28 06:55:06;;;;;;;0.10;0.10;;;;;;;18.86;61.17;102234.44;5049856;28;20104;-86
2022/06/28 06:57:32;;;;;;;0.20;0.20;;;;;;;18.97;60.80;102242.19;5049032;28;20040;-80
2022/06/28 06:59:58;;;;;;;0.03;0.03;;;;;;;19.10;60.96;102239.09;5053851;28;20029;-81
2022/06/28 07:02:24;;;;;;;0.10;0.10;;;;;;;19.16;61.14;102244.25;5049758;28;20043;-83
2022/06/28 07:04:51;;;;;;;0.50;0.50;;;;;;;19.14;59.99;102248.78;5051601;28;20601;-84
2022/06/28 07:07:18;;;;;;;0.10;0.10;;;;;;;19.08;59.17;102248.06;5046125;28;20021;-81
2022/06/28 07:09:48;;;;;;;0.00;0.00;;;;;;;19.15;59.64;102250.56;5054076;28;20024;-88
2022/06/28 07:12:14;;;;;;;0.25;0.25;;;;;;;19.21;59.49;102250.34;5062810;28;20048;-80
2022/06/28 07:14:40;;;;;;;0.00;0.00;;;;;;;19.32;59.18;102256.22;5063908;28;20665;-80
2022/06/28 07:17:06;;;;;;;0.00;0.00;;;;;;;19.37;58.65;102251.56;5059028;28;20067;-80
2022/06/28 07:19:32;;;;;;;0.05;0.05;;;;;;;19.46;58.75;102254.88;5054697;28;20033;-80
2022/06/28 07:21:58;;;;;;;0.10;0.10;;;;;;;19.48;58.32;102250.34;5054427;28;20116;-80
2022/06/28 07:24:24;;;;;;;4.05;2.63;;;;;;;19.48;57.16;102247.66;5051770;28;20034;-80
2022/06/28 07:26:50;;;;;;;3.47;0.75;;;;;;;19.73;58.14;102261.94;5055923;28;20044;-80
2022/06/28 07:29:17;;;;;;;0.10;0.10;;;;;;;19.86;57.12;102259.75;5048471;28;20036;-82
2022/06/28 07:31:44;;;;;;;0.85;0.85;;;;;;;19.93;56.56;102255.00;5040595;28;20408;-83
2022/06/28 07:34:10;;;;;;;0.20;0.20;;;;;;;19.95;56.23;102257.63;5053791;28;20107;-81
2022/06/28 07:36:38;;;;;;;0.10;0.10;;;;;;;19.95;55.07;102257.63;5046597;28;20053;-82
2022/06/28 07:39:04;;;;;;;0.03;0.03;;;;;;;20.04;54.79;102252.78;5056297;28;20068;-83
2022/06/28 07:41:30;;;;;;;0.00;0.00;;;;;;;20.02;54.79;102257.34;5050968;28;20396;-82
2022/06/28 07:43:56;;;;;;;0.35;0.35;;;;;;;20.09;55.72;102249.03;5049676;28;20104;-82
2022/06/28 07:46:23;;;;;;;0.05;0.05;;;;;;;19.91;54.66;102256.88;5046605;28;20033;-84
2022/06/28 07:48:50;;;;;;;0.00;0.00;;;;;;;19.97;54.50;102253.09;5055648;28;20036;-82
2022/06/28 07:54:03;;;;;;;0.00;0.00;;;;;;;19.97;54.92;102245.88;5047052;28;20052;-82
2022/06/28 07:56:30;;;;;;;0.00;0.00;;;;;;;20.06;54.73;102243.78;5052237;28;20059;-81
2022/06/28 07:58:57;;;;;;;0.00;0.00;;;;;;;20.14;55.21;102250.63;5051003;28;20055;-82
2022/06/28 08:01:23;;;;;;;0.10;0.10;;;;;;;20.20;54.97;102252.22;5049146;28;20048;-82
2022/06/28 08:03:49;;;;;;;0.10;0.10;;;;;;;20.33;54.83;102252.63;5044969;28;20029;-82
2022/06/28 08:06:15;;;;;;;0.00;0.00;;;;;;;20.41;53.91;102246.94;5046722;28;20025;-81
2022/06/28 08:08:42;;;;;;;0.68;0.68;;;;;;;20.57;53.91;102244.53;5045719;28;20039;-81
2022/06/28 08:11:09;;;;;;;0.00;0.00;;;;;;;20.56;52.99;102242.75;5044274;28;20041;-81
2022/06/28 08:13:37;;;;;;;0.00;0.00;;;;;;;20.64;52.91;102246.91;5049517;28;20609;-81
2022/06/28 08:16:04;;;;;;;0.10;0.10;;;;;;;20.68;51.68;102247.66;5040125;28;20038;-82
2022/06/28 08:18:31;;;;;;;0.10;0.10;;;;;;;20.77;51.78;102246.44;5043959;28;20489;-81
2022/06/28 08:20:57;;;;;;;0.00;0.00;;;;;;;20.81;52.12;102243.56;5045197;28;20021;-81
2022/06/28 08:23:23;;;;;;;0.00;0.00;;;;;;;20.84;52.50;102242.56;5054615;28;20036;-81
2022/06/28 08:25:49;;;;;;;0.20;0.17;;;;;;;20.83;51.21;102241.66;5061477;28;20057;-80
2022/06/28 08:28:15;;;;;;;1.85;0.80;;;;;;;20.97;51.77;102238.41;5052727;28;20072;-81
2022/06/28 08:30:42;;;;;;;0.75;0.75;;;;;;;21.01;50.80;102245.44;5050311;28;20045;-81
2022/06/28 08:33:10;;;;;;;0.10;0.10;;;;;;;21.12;50.50;102241.41;5051037;28;20037;-80
2022/06/28 08:35:38;;;;;;;0.10;0.10;;;;;;;21.21;49.45;102240.13;5050461;28;20045;-80
2022/06/28 08:38:05;;;;;;;0.00;0.00;;;;;;;21.40;49.93;102242.94;5049746;28;20041;-81
2022/06/28 08:40:32;;;;;;;0.20;0.20;;;;;;;21.47;48.90;102236.28;5047898;28;20032;-80
2022/06/28 08:43:00;;;;;;;0.00;0.00;;;;;;;21.68;49.71;102225.53;5048390;28;20436;-80
2022/06/28 08:45:27;;;;;;;0.32;0.32;;;;;;;21.59;47.08;102230.38;5054170;28;20033;-80
2022/06/28 08:47:55;;;;;;;0.10;0.10;;;;;;;21.73;47.79;102232.50;5060124;28;20494;-80
2022/06/28 08:50:40;;;;;;;0.00;0.00;;;;;;;21.89;47.07;102226.38;5056077;28;20033;-81
2022/06/28 08:53:08;;;;;;;0.40;0.40;;;;;;;21.80;46.79;102225.00;5050736;28;20144;-80
2022/06/28 08:55:35;;;;;;;0.10;0.10;;;;;;;21.89;46.74;102221.84;5050790;28;20053;-79
2022/06/28 08:58:04;;;;;;;0.10;0.10;;;;;;;22.01;47.56;102224.94;5058542;28;20101;-80
2022/06/28 09:00:30;;;;;;;0.10;0.10;;;;;;;22.07;47.59;102222.84;5060482;28;20044;-80
2022/06/28 09:02:56;;;;;;;0.20;0.20;;;;;;;22.06;46.75;102225.63;5052895;28;20029;-80
2022/06/28 09:05:25;;;;;;;0.15;0.15;;;;;;;22.09;45.83;102218.25;5054927;28;20047;-80
2022/06/28 09:07:53;;;;;;;0.10;0.10;;;;;;;22.14;46.16;102221.63;5052556;28;20029;-80
2022/06/28 09:10:19;;;;;;;1.13;1.13;;;;;;;22.32;47.22;102218.09;5064883;28;20036;-80
2022/06/28 09:12:55;;;;;;;0.10;0.10;;;;;;;22.34;45.82;102206.28;5046769;28;20037;-81
2022/06/28 09:15:24;;;;;;;0.20;0.20;;;;;;;22.46;45.58;102219.22;5042636;28;20044;-80
2022/06/28 09:17:54;;;;;;;0.05;0.05;;;;;;;22.53;46.17;102206.31;5051895;28;20024;-80
2022/06/28 09:20:34;;;;;;;0.10;0.10;;;;;;;22.54;45.51;102213.47;5056256;28;20044;-80
2022/06/28 09:23:00;;;;;;;0.10;0.10;;;;;;;22.57;46.29;102199.78;5061487;28;20022;-80
2022/06/28 09:25:28;;;;;;;0.08;0.08;;;;;;;22.57;46.22;102202.50;5064613;28;20032;-80
2022/06/28 09:27:58;;;;;;;0.10;0.10;;;;;;;22.68;45.24;102199.28;5049202;28;20041;-80
2022/06/28 09:30:26;;;;;;;0.10;0.10;;;;;;;22.82;46.12;102200.38;5057619;28;20037;-80
2022/06/28 09:32:53;;;;;;;0.10;0.10;;;;;;;22.82;42.33;102185.06;5050585;28;20067;-80
2022/06/28 09:35:19;;;;;;;0.20;0.20;;;;;;;22.94;44.11;102194.34;5057929;28;20025;-80
2022/06/28 09:37:48;;;;;;;0.10;0.10;;;;;;;22.85;42.78;102192.13;5054264;28;20124;-80
2022/06/28 09:43:12;;;;;;;0.10;0.10;;;;;;;22.92;44.10;102191.75;5107721;27;21044;-81
2022/06/28 09:45:41;;;;;;;0.00;0.00;;;;;;;22.97;44.62;102196.03;5078177;28;20029;-81
2022/06/28 09:48:09;;;;;;;0.00;0.00;;;;;;;22.91;41.84;102189.97;5072914;28;20057;-81
2022/06/28 09:50:36;;;;;;;0.35;0.35;;;;;;;22.99;41.69;102186.91;5077206;28;20028;-81
2022/06/28 09:53:04;;;;;;;0.00;0.00;;;;;;;23.05;43.27;102185.69;5077427;28;20082;-81
2022/06/28 09:55:32;;;;;;;0.57;0.57;;;;;;;23.01;41.23;102190.38;5077480;28;20032;-81
2022/06/28 09:58:00;;;;;;;0.65;0.52;;;;;;;23.13;41.23;102183.50;5076573;28;20033;-80
2022/06/28 10:00:26;;;;;;;0.10;0.10;;;;;;;23.08;40.49;102183.72;5067577;28;20032;-81
2022/06/28 10:02:56;;;;;;;0.10;0.10;;;;;;;23.21;41.34;102180.41;5072442;28;20017;-81
2022/06/28 10:05:23;;;;;;;0.30;0.30;;;;;;;23.26;42.49;102187.34;5076559;28;20089;-81
2022/06/28 10:07:50;;;;;;;4.90;0.75;;;;;;;23.34;40.46;102186.03;5090516;28;20159;-81
2022/06/28 10:10:16;;;;;;;0.10;0.10;;;;;;;23.28;38.75;102179.16;5085042;28;20024;-81
2022/06/28 10:15:35;;;;;;;0.17;0.17;;;;;;;23.60;39.58;102179.22;5075447;28;20029;-81
2022/06/28 10:18:09;;;;;;;0.10;0.10;;;;;;;23.64;38.64;102182.66;5073326;28;20083;-81
2022/06/28 10:20:38;;;;;;;0.10;0.10;;;;;;;23.68;37.30;102179.69;5075430;28;20040;-81
2022/06/28 10:23:26;;;;;;;0.10;0.10;;;;;;;23.80;38.49;102169.16;5076874;28;20048;-81
2022/06/28 10:29:09;;;;;;;0.10;0.10;;;;;;;23.88;39.37;102173.19;5104059;27;20386;-82
2022/06/28 10:34:22;;;;;;;0.08;0.08;;;;;;;23.84;38.54;102163.50;5072310;28;20165;-78
2022/06/28 10:36:55;;;;;;;0.20;0.20;;;;;;;23.87;38.28;102168.72;5046196;28;20031;-80
2022/06/28 10:39:24;;;;;;;0.55;0.55;;;;;;;23.85;39.56;102165.25;5041200;28;20041;-79
2022/06/28 10:41:52;;;;;;;1.33;1.10;;;;;;;23.99;39.71;102150.97;5029182;28;20024;-79
2022/06/28 10:44:23;;;;;;;0.00;0.00;;;;;;;24.10;38.06;102146.78;5038443;28;20405;-80
2022/06/28 10:46:52;;;;;;;0.10;0.10;;;;;;;24.21;38.53;102150.63;5041405;28;20036;-79
2022/06/28 10:49:20;;;;;;;0.10;0.10;;;;;;;24.28;38.91;102144.88;5037678;28;20150;-79
2022/06/28 10:52:07;;;;;;;0.03;0.03;;;;;;;24.45;36.98;102146.59;5041114;28;20034;-77
2022/06/28 10:54:33;;;;;;;0.10;0.10;;;;;;;24.29;36.24;102152.00;5028483;28;20033;-77
2022/06/28 10:57:00;;;;;;;0.00;0.00;;;;;;;24.31;37.69;102144.69;5025284;28;20034;-80
2022/06/28 10:59:36;;;;;;;0.10;0.10;;;;;;;24.44;40.38;102139.44;5027366;28;20088;-78
2022/06/28 11:02:03;;;;;;;0.10;0.10;;;;;;;24.39;36.01;102137.00;5027585;28;20134;-79
2022/06/28 11:04:30;;;;;;;0.00;0.00;;;;;;;24.53;36.88;102128.91;5030710;28;20037;-79
2022/06/28 11:14:49;;;;;;;0.10;0.10;;;;;;;24.83;33.34;102114.53;5121409;27;20379;-78
2022/06/28 11:17:18;;;;;;;0.10;0.10;;;;;;;24.98;35.88;102120.00;5129798;27;20035;-78
2022/06/28 11:19:54;;;;;;;0.10;0.10;;;;;;;24.91;34.09;102116.81;5129834;27;20493;-79
2022/06/28 11:22:23;;;;;;;0.17;0.17;;;;;;;24.90;33.94;102119.59;5129305;27;20487;-79
2022/06/28 11:24:50;;;;;;;0.10;0.10;;;;;;;25.14;33.75;102114.50;5129503;27;20402;-78
2022/06/28 11:27:20;;;;;;;0.10;0.10;;;;;;;25.16;33.27;102116.16;5111682;27;20074;-78
2022/06/28 11:29:47;;;;;;;0.10;0.10;;;;;;;25.29;33.59;102109.97;5107978;28;20070;-78
2022/06/28 11:32:23;;;;;;;0.10;0.10;;;;;;;25.37;33.92;102110.38;5123415;28;20024;-78
2022/06/28 11:34:59;;;;;;;0.10;0.10;;;;;;;25.31;32.67;102108.91;5129433;27;20037;-78
2022/06/28 11:37:26;;;;;;;0.10;0.10;;;;;;;25.34;33.19;102102.41;5113863;27;20503;-77
2022/06/28 11:39:59;;;;;;;0.10;0.10;;;;;;;25.44;34.49;102102.75;5122795;22;20068;-80
2022/06/28 11:42:26;;;;;;;0.00;0.00;;;;;;;25.51;35.23;102104.97;5072806;28;20036;-79
2022/06/28 11:44:53;;;;;;;0.10;0.10;;;;;;;25.59;31.85;102093.63;5075170;28;20025;-79
2022/06/28 11:47:21;;;;;;;18.55;0.63;;;;;;;25.71;32.01;102100.09;5072082;28;20025;-80
2022/06/28 11:50:08;;;;;;;0.30;0.30;;;;;;;25.69;31.79;102107.47;5071078;28;20028;-79
2022/06/28 11:52:45;;;;;;;0.10;0.10;;;;;;;25.85;33.00;102099.22;5059900;28;20062;-79
2022/06/28 11:55:13;;;;;;;0.20;0.20;;;;;;;25.81;32.40;102087.66;5051184;28;20033;-79